sensor_id;sensor_type;location;lat;lon;timestamp;P1;durP1;ratioP1;P2;durP2;ratioP2
18340;SDS011;9296;48.084;16.352;2023-06-22T00:00:35;12.50;;;5.50;;
18340;SDS011;9296;48.084;16.352;2023-06-22T00:03:02;12.38;;;5.47;;
18340;SDS011;9296;48.084;16.352;2023-06-22T00:05:30;12.30;;;5.80;;
18340;SDS011;9296;48.084;16.352;2023-06-22T00:07:57;13.00;;;5.70;;
18340;SDS011;9296;48.084;16.352;2023-06-22T00:13:29;12.90;;;5.97;;
18340;SDS011;9296;48.084;16.352;2023-06-22T00:15:56;13.75;;;6.03;;
18340;SDS011;9296;48.084;16.352;2023-06-22T00:18:23;12.45;;;6.25;;
18340;SDS011;9296;48.084;16.352;2023-06-22T00:20:54;18.33;;;6.22;;
18340;SDS011;9296;48.084;16.352;2023-06-22T00:23:23;13.80;;;6.55;;
18340;SDS011;9296;48.084;16.352;2023-06-22T00:25:51;15.18;;;6.10;;
18340;SDS011;9296;48.084;16.352;2023-06-22T00:28:18;16.98;;;6.60;;
18340;SDS011;9296;48.084;16.352;2023-06-22T00:30:45;14.98;;;5.75;;
18340;SDS011;9296;48.084;16.352;2023-06-22T00:33:13;15.27;;;6.15;;
18340;SDS011;9296;48.084;16.352;2023-06-22T00:35:41;14.07;;;6.53;;
18340;SDS011;9296;48.084;16.352;2023-06-22T00:38:09;9.77;;;5.35;;
18340;SDS011;9296;48.084;16.352;2023-06-22T00:43:49;17.73;;;6.95;;
18340;SDS011;9296;48.084;16.352;2023-06-22T00:46:16;14.18;;;6.22;;
18340;SDS011;9296;48.084;16.352;2023-06-22T00:48:44;13.10;;;6.00;;
18340;SDS011;9296;48.084;16.352;2023-06-22T00:51:11;13.25;;;6.03;;
18340;SDS011;9296;48.084;16.352;2023-06-22T00:53:40;16.15;;;6.60;;
18340;SDS011;9296;48.084;16.352;2023-06-22T00:56:08;12.20;;;5.60;;
18340;SDS011;9296;48.084;16.352;2023-06-22T00:58:38;8.95;;;5.68;;
18340;SDS011;9296;48.084;16.352;2023-06-22T01:01:06;12.85;;;6.72;;
18340;SDS011;9296;48.084;16.352;2023-06-22T01:03:33;12.05;;;5.82;;
18340;SDS011;9296;48.084;16.352;2023-06-22T01:06:02;16.98;;;6.00;;
18340;SDS011;9296;48.084;16.352;2023-06-22T01:08:35;15.35;;;6.53;;
18340;SDS011;9296;48.084;16.352;2023-06-22T01:11:28;13.00;;;5.85;;
18340;SDS011;9296;48.084;16.352;2023-06-22T01:14:00;14.18;;;6.85;;
18340;SDS011;9296;48.084;16.352;2023-06-22T01:16:29;17.35;;;6.63;;
18340;SDS011;9296;48.084;16.352;2023-06-22T01:18:57;15.85;;;6.28;;
18340;SDS011;9296;48.084;16.352;2023-06-22T01:21:28;16.65;;;6.28;;
18340;SDS011;9296;48.084;16.352;2023-06-22T01:23:59;11.50;;;6.15;;
18340;SDS011;9296;48.084;16.352;2023-06-22T01:29:16;15.35;;;6.72;;
18340;SDS011;9296;48.084;16.352;2023-06-22T01:31:44;14.68;;;6.65;;
18340;SDS011;9296;48.084;16.352;2023-06-22T01:34:12;19.17;;;7.70;;
18340;SDS011;9296;48.084;16.352;2023-06-22T01:36:39;10.15;;;6.60;;
18340;SDS011;9296;48.084;16.352;2023-06-22T01:39:07;16.73;;;8.10;;
18340;SDS011;9296;48.084;16.352;2023-06-22T01:41:53;15.57;;;7.80;;
18340;SDS011;9296;48.084;16.352;2023-06-22T01:44:22;14.23;;;7.43;;
18340;SDS011;9296;48.084;16.352;2023-06-22T01:46:51;16.90;;;8.27;;
18340;SDS011;9296;48.084;16.352;2023-06-22T01:49:19;18.48;;;7.57;;
18340;SDS011;9296;48.084;16.352;2023-06-22T01:51:46;21.02;;;8.05;;
18340;SDS011;9296;48.084;16.352;2023-06-22T01:54:13;19.40;;;7.68;;
18340;SDS011;9296;48.084;16.352;2023-06-22T01:56:40;11.88;;;7.47;;
18340;SDS011;9296;48.084;16.352;2023-06-22T01:59:09;17.35;;;7.07;;
18340;SDS011;9296;48.084;16.352;2023-06-22T02:01:42;18.38;;;7.93;;
18340;SDS011;9296;48.084;16.352;2023-06-22T02:04:11;18.67;;;7.75;;
18340;SDS011;9296;48.084;16.352;2023-06-22T02:06:41;16.10;;;7.53;;
18340;SDS011;9296;48.084;16.352;2023-06-22T02:09:09;16.25;;;8.63;;
18340;SDS011;9296;48.084;16.352;2023-06-22T02:14:42;19.65;;;9.40;;
18340;SDS011;9296;48.084;16.352;2023-06-22T02:17:11;22.10;;;10.07;;
18340;SDS011;9296;48.084;16.352;2023-06-22T02:19:38;15.70;;;10.13;;
18340;SDS011;9296;48.084;16.352;2023-06-22T02:22:05;15.25;;;10.65;;
18340;SDS011;9296;48.084;16.352;2023-06-22T02:24:32;22.10;;;10.88;;
18340;SDS011;9296;48.084;16.352;2023-06-22T02:27:00;18.65;;;10.25;;
18340;SDS011;9296;48.084;16.352;2023-06-22T02:29:28;18.48;;;10.52;;
18340;SDS011;9296;48.084;16.352;2023-06-22T02:31:55;16.20;;;11.93;;
18340;SDS011;9296;48.084;16.352;2023-06-22T02:34:24;21.77;;;13.63;;
18340;SDS011;9296;48.084;16.352;2023-06-22T02:36:51;20.67;;;14.10;;
18340;SDS011;9296;48.084;16.352;2023-06-22T02:39:19;21.35;;;13.18;;
18340;SDS011;9296;48.084;16.352;2023-06-22T02:42:03;24.25;;;13.88;;
18340;SDS011;9296;48.084;16.352;2023-06-22T02:44:30;18.30;;;13.70;;
18340;SDS011;9296;48.084;16.352;2023-06-22T02:46:57;20.63;;;13.50;;
18340;SDS011;9296;48.084;16.352;2023-06-22T02:49:26;23.23;;;13.18;;
18340;SDS011;9296;48.084;16.352;2023-06-22T02:51:53;17.45;;;12.80;;
18340;SDS011;9296;48.084;16.352;2023-06-22T02:54:21;23.35;;;12.98;;
18340;SDS011;9296;48.084;16.352;2023-06-22T02:59:38;17.38;;;11.73;;
18340;SDS011;9296;48.084;16.352;2023-06-22T03:02:05;19.45;;;12.02;;
18340;SDS011;9296;48.084;16.352;2023-06-22T03:04:34;18.08;;;12.10;;
18340;SDS011;9296;48.084;16.352;2023-06-22T03:07:01;15.35;;;11.63;;
18340;SDS011;9296;48.084;16.352;2023-06-22T03:09:29;18.98;;;11.55;;
18340;SDS011;9296;48.084;16.352;2023-06-22T03:12:14;18.70;;;11.77;;
18340;SDS011;9296;48.084;16.352;2023-06-22T03:14:41;20.13;;;11.40;;
18340;SDS011;9296;48.084;16.352;2023-06-22T03:17:09;17.38;;;11.50;;
18340;SDS011;9296;48.084;16.352;2023-06-22T03:19:38;19.77;;;11.57;;
18340;SDS011;9296;48.084;16.352;2023-06-22T03:22:05;15.75;;;10.50;;
18340;SDS011;9296;48.084;16.352;2023-06-22T03:24:32;15.35;;;11.18;;
18340;SDS011;9296;48.084;16.352;2023-06-22T03:26:59;17.95;;;11.50;;
18340;SDS011;9296;48.084;16.352;2023-06-22T03:29:29;17.98;;;10.57;;
18340;SDS011;9296;48.084;16.352;2023-06-22T03:31:57;17.05;;;10.35;;
18340;SDS011;9296;48.084;16.352;2023-06-22T03:34:24;17.45;;;10.90;;
18340;SDS011;9296;48.084;16.352;2023-06-22T03:36:52;14.32;;;10.52;;
18340;SDS011;9296;48.084;16.352;2023-06-22T03:39:20;17.23;;;11.00;;
18340;SDS011;9296;48.084;16.352;2023-06-22T03:41:47;16.55;;;10.98;;
18340;SDS011;9296;48.084;16.352;2023-06-22T03:44:14;15.90;;;9.52;;
18340;SDS011;9296;48.084;16.352;2023-06-22T03:46:41;16.33;;;10.20;;
18340;SDS011;9296;48.084;16.352;2023-06-22T03:49:08;16.73;;;10.35;;
18340;SDS011;9296;48.084;16.352;2023-06-22T03:51:35;14.43;;;8.88;;
18340;SDS011;9296;48.084;16.352;2023-06-22T03:54:05;15.57;;;9.60;;
18340;SDS011;9296;48.084;16.352;2023-06-22T03:59:35;13.45;;;7.38;;
18340;SDS011;9296;48.084;16.352;2023-06-22T04:02:03;13.48;;;7.18;;
18340;SDS011;9296;48.084;16.352;2023-06-22T04:04:30;13.55;;;7.22;;
18340;SDS011;9296;48.084;16.352;2023-06-22T04:06:58;12.70;;;6.90;;
18340;SDS011;9296;48.084;16.352;2023-06-22T04:09:27;12.20;;;6.53;;
18340;SDS011;9296;48.084;16.352;2023-06-22T04:11:54;13.98;;;6.88;;
18340;SDS011;9296;48.084;16.352;2023-06-22T04:14:21;14.18;;;7.25;;
18340;SDS011;9296;48.084;16.352;2023-06-22T04:16:48;13.65;;;7.60;;
18340;SDS011;9296;48.084;16.352;2023-06-22T04:19:16;14.52;;;7.78;;
18340;SDS011;9296;48.084;16.352;2023-06-22T04:21:43;15.48;;;7.68;;
18340;SDS011;9296;48.084;16.352;2023-06-22T04:24:10;17.52;;;7.88;;
18340;SDS011;9296;48.084;16.352;2023-06-22T04:29:43;15.40;;;7.55;;
18340;SDS011;9296;48.084;16.352;2023-06-22T04:32:14;17.83;;;8.63;;
18340;SDS011;9296;48.084;16.352;2023-06-22T04:34:41;13.90;;;7.90;;
18340;SDS011;9296;48.084;16.352;2023-06-22T04:37:08;16.15;;;7.47;;
18340;SDS011;9296;48.084;16.352;2023-06-22T04:39:40;14.18;;;8.55;;
18340;SDS011;9296;48.084;16.352;2023-06-22T04:45:12;18.27;;;8.43;;
18340;SDS011;9296;48.084;16.352;2023-06-22T04:47:39;13.23;;;8.25;;
18340;SDS011;9296;48.084;16.352;2023-06-22T04:50:07;15.32;;;8.85;;
18340;SDS011;9296;48.084;16.352;2023-06-22T04:52:35;14.50;;;9.10;;
18340;SDS011;9296;48.084;16.352;2023-06-22T04:55:02;14.30;;;10.15;;
18340;SDS011;9296;48.084;16.352;2023-06-22T04:57:29;18.90;;;11.07;;
18340;SDS011;9296;48.084;16.352;2023-06-22T04:59:57;17.35;;;10.80;;
18340;SDS011;9296;48.084;16.352;2023-06-22T05:02:33;17.17;;;10.43;;
18340;SDS011;9296;48.084;16.352;2023-06-22T05:05:00;16.95;;;10.32;;
18340;SDS011;9296;48.084;16.352;2023-06-22T05:07:31;13.57;;;9.40;;
18340;SDS011;9296;48.084;16.352;2023-06-22T05:09:59;18.73;;;10.38;;
18340;SDS011;9296;48.084;16.352;2023-06-22T05:12:27;17.65;;;10.63;;
18340;SDS011;9296;48.084;16.352;2023-06-22T05:14:54;20.33;;;10.52;;
18340;SDS011;9296;48.084;16.352;2023-06-22T05:17:21;14.75;;;10.18;;
18340;SDS011;9296;48.084;16.352;2023-06-22T05:19:50;16.27;;;9.75;;
18340;SDS011;9296;48.084;16.352;2023-06-22T05:22:17;14.27;;;9.43;;
18340;SDS011;9296;48.084;16.352;2023-06-22T05:24:45;18.67;;;9.23;;
18340;SDS011;9296;48.084;16.352;2023-06-22T05:27:12;14.90;;;9.43;;
18340;SDS011;9296;48.084;16.352;2023-06-22T05:29:39;19.23;;;10.15;;
18340;SDS011;9296;48.084;16.352;2023-06-22T05:32:07;16.30;;;9.90;;
18340;SDS011;9296;48.084;16.352;2023-06-22T05:34:34;20.73;;;9.82;;
18340;SDS011;9296;48.084;16.352;2023-06-22T05:37:03;16.52;;;9.55;;
18340;SDS011;9296;48.084;16.352;2023-06-22T05:39:31;15.60;;;9.73;;
18340;SDS011;9296;48.084;16.352;2023-06-22T05:41:58;15.40;;;9.52;;
18340;SDS011;9296;48.084;16.352;2023-06-22T05:44:25;13.73;;;9.55;;
18340;SDS011;9296;48.084;16.352;2023-06-22T05:46:53;15.82;;;10.18;;
18340;SDS011;9296;48.084;16.352;2023-06-22T05:49:20;18.48;;;9.38;;
18340;SDS011;9296;48.084;16.352;2023-06-22T05:51:49;16.38;;;9.35;;
18340;SDS011;9296;48.084;16.352;2023-06-22T05:54:18;20.17;;;9.50;;
18340;SDS011;9296;48.084;16.352;2023-06-22T05:56:45;20.35;;;10.77;;
18340;SDS011;9296;48.084;16.352;2023-06-22T05:59:12;20.65;;;11.27;;
18340;SDS011;9296;48.084;16.352;2023-06-22T06:01:39;18.90;;;11.77;;
18340;SDS011;9296;48.084;16.352;2023-06-22T06:04:06;22.98;;;11.93;;
18340;SDS011;9296;48.084;16.352;2023-06-22T06:06:34;17.80;;;11.93;;
18340;SDS011;9296;48.084;16.352;2023-06-22T06:09:02;20.60;;;12.82;;
18340;SDS011;9296;48.084;16.352;2023-06-22T06:14:34;21.08;;;13.50;;
18340;SDS011;9296;48.084;16.352;2023-06-22T06:17:01;21.10;;;12.88;;
18340;SDS011;9296;48.084;16.352;2023-06-22T06:19:29;18.95;;;12.30;;
18340;SDS011;9296;48.084;16.352;2023-06-22T06:21:56;18.60;;;13.38;;
18340;SDS011;9296;48.084;16.352;2023-06-22T06:24:23;16.25;;;11.77;;
18340;SDS011;9296;48.084;16.352;2023-06-22T06:26:50;21.05;;;12.60;;
18340;SDS011;9296;48.084;16.352;2023-06-22T06:29:18;17.80;;;12.07;;
18340;SDS011;9296;48.084;16.352;2023-06-22T06:31:46;17.17;;;11.98;;
18340;SDS011;9296;48.084;16.352;2023-06-22T06:34:13;21.38;;;12.85;;
18340;SDS011;9296;48.084;16.352;2023-06-22T06:36:41;20.00;;;11.25;;
18340;SDS011;9296;48.084;16.352;2023-06-22T06:39:09;23.10;;;11.75;;
18340;SDS011;9296;48.084;16.352;2023-06-22T06:41:37;19.88;;;12.68;;
18340;SDS011;9296;48.084;16.352;2023-06-22T06:44:04;20.33;;;11.57;;
18340;SDS011;9296;48.084;16.352;2023-06-22T06:46:31;16.35;;;11.35;;
18340;SDS011;9296;48.084;16.352;2023-06-22T06:48:59;21.90;;;11.73;;
18340;SDS011;9296;48.084;16.352;2023-06-22T06:51:27;16.98;;;11.32;;
18340;SDS011;9296;48.084;16.352;2023-06-22T06:53:54;18.50;;;12.35;;
18340;SDS011;9296;48.084;16.352;2023-06-22T06:56:21;14.85;;;11.57;;
18340;SDS011;9296;48.084;16.352;2023-06-22T06:58:49;19.60;;;12.20;;
18340;SDS011;9296;48.084;16.352;2023-06-22T07:01:17;21.95;;;12.05;;
18340;SDS011;9296;48.084;16.352;2023-06-22T07:03:44;22.55;;;12.35;;
18340;SDS011;9296;48.084;16.352;2023-06-22T07:06:13;16.58;;;11.90;;
18340;SDS011;9296;48.084;16.352;2023-06-22T07:08:41;20.23;;;12.45;;
18340;SDS011;9296;48.084;16.352;2023-06-22T07:11:08;16.15;;;12.00;;
18340;SDS011;9296;48.084;16.352;2023-06-22T07:13:35;16.30;;;11.63;;
18340;SDS011;9296;48.084;16.352;2023-06-22T07:16:03;20.95;;;13.50;;
18340;SDS011;9296;48.084;16.352;2023-06-22T07:18:31;16.88;;;12.52;;
18340;SDS011;9296;48.084;16.352;2023-06-22T07:20:58;16.85;;;11.13;;
18340;SDS011;9296;48.084;16.352;2023-06-22T07:23:26;19.83;;;12.07;;
18340;SDS011;9296;48.084;16.352;2023-06-22T07:25:54;17.23;;;13.32;;
18340;SDS011;9296;48.084;16.352;2023-06-22T07:28:21;17.63;;;12.40;;
18340;SDS011;9296;48.084;16.352;2023-06-22T07:30:48;17.48;;;12.43;;
18340;SDS011;9296;48.084;16.352;2023-06-22T07:33:16;19.08;;;12.02;;
18340;SDS011;9296;48.084;16.352;2023-06-22T07:35:43;17.38;;;11.48;;
18340;SDS011;9296;48.084;16.352;2023-06-22T07:38:12;18.35;;;11.68;;
18340;SDS011;9296;48.084;16.352;2023-06-22T07:40:41;18.15;;;12.73;;
18340;SDS011;9296;48.084;16.352;2023-06-22T07:43:27;18.23;;;11.95;;
18340;SDS011;9296;48.084;16.352;2023-06-22T07:45:55;16.27;;;11.95;;
18340;SDS011;9296;48.084;16.352;2023-06-22T07:48:22;17.05;;;12.25;;
18340;SDS011;9296;48.084;16.352;2023-06-22T07:50:50;17.20;;;11.27;;
18340;SDS011;9296;48.084;16.352;2023-06-22T07:53:18;15.15;;;11.50;;
18340;SDS011;9296;48.084;16.352;2023-06-22T07:55:47;14.43;;;11.02;;
18340;SDS011;9296;48.084;16.352;2023-06-22T07:58:31;16.10;;;11.70;;
18340;SDS011;9296;48.084;16.352;2023-06-22T08:00:58;18.10;;;11.93;;
18340;SDS011;9296;48.084;16.352;2023-06-22T08:03:26;16.25;;;11.13;;
18340;SDS011;9296;48.084;16.352;2023-06-22T08:05:53;16.17;;;11.50;;
18340;SDS011;9296;48.084;16.352;2023-06-22T08:08:20;15.60;;;10.60;;
18340;SDS011;9296;48.084;16.352;2023-06-22T08:10:49;16.95;;;11.73;;
18340;SDS011;9296;48.084;16.352;2023-06-22T08:13:16;16.13;;;11.20;;
18340;SDS011;9296;48.084;16.352;2023-06-22T08:15:44;11.77;;;9.88;;
18340;SDS011;9296;48.084;16.352;2023-06-22T08:18:11;15.07;;;9.77;;
18340;SDS011;9296;48.084;16.352;2023-06-22T08:20:38;13.95;;;9.75;;
18340;SDS011;9296;48.084;16.352;2023-06-22T08:23:05;14.65;;;8.93;;
18340;SDS011;9296;48.084;16.352;2023-06-22T08:25:33;10.43;;;9.05;;
18340;SDS011;9296;48.084;16.352;2023-06-22T08:28:01;10.75;;;8.55;;
18340;SDS011;9296;48.084;16.352;2023-06-22T08:30:29;14.07;;;9.68;;
18340;SDS011;9296;48.084;16.352;2023-06-22T08:32:56;10.65;;;8.40;;
18340;SDS011;9296;48.084;16.352;2023-06-22T08:35:23;13.43;;;9.00;;
18340;SDS011;9296;48.084;16.352;2023-06-22T08:37:50;13.93;;;9.23;;
18340;SDS011;9296;48.084;16.352;2023-06-22T08:40:19;12.82;;;7.90;;
18340;SDS011;9296;48.084;16.352;2023-06-22T08:42:47;9.70;;;7.57;;
18340;SDS011;9296;48.084;16.352;2023-06-22T08:45:16;9.77;;;7.75;;
18340;SDS011;9296;48.084;16.352;2023-06-22T08:47:43;12.20;;;7.47;;
18340;SDS011;9296;48.084;16.352;2023-06-22T08:50:11;8.48;;;6.45;;
18340;SDS011;9296;48.084;16.352;2023-06-22T08:52:39;8.35;;;6.38;;
18340;SDS011;9296;48.084;16.352;2023-06-22T08:55:07;9.27;;;6.32;;
18340;SDS011;9296;48.084;16.352;2023-06-22T08:57:34;11.68;;;6.20;;
18340;SDS011;9296;48.084;16.352;2023-06-22T09:00:04;12.68;;;6.70;;
18340;SDS011;9296;48.084;16.352;2023-06-22T09:02:37;12.93;;;6.90;;
18340;SDS011;9296;48.084;16.352;2023-06-22T09:05:05;9.02;;;5.40;;
18340;SDS011;9296;48.084;16.352;2023-06-22T09:07:33;9.77;;;6.32;;
18340;SDS011;9296;48.084;16.352;2023-06-22T09:10:00;8.15;;;5.45;;
18340;SDS011;9296;48.084;16.352;2023-06-22T09:12:30;8.75;;;5.90;;
18340;SDS011;9296;48.084;16.352;2023-06-22T09:14:57;11.73;;;5.72;;
18340;SDS011;9296;48.084;16.352;2023-06-22T09:17:25;7.93;;;5.05;;
18340;SDS011;9296;48.084;16.352;2023-06-22T09:19:54;9.63;;;6.10;;
18340;SDS011;9296;48.084;16.352;2023-06-22T09:22:21;8.60;;;5.55;;
18340;SDS011;9296;48.084;16.352;2023-06-22T09:24:54;10.68;;;5.30;;
18340;SDS011;9296;48.084;16.352;2023-06-22T09:27:21;9.70;;;5.90;;
18340;SDS011;9296;48.084;16.352;2023-06-22T09:29:48;9.30;;;5.50;;
18340;SDS011;9296;48.084;16.352;2023-06-22T09:32:15;10.68;;;5.28;;
18340;SDS011;9296;48.084;16.352;2023-06-22T09:34:42;11.40;;;5.38;;
18340;SDS011;9296;48.084;16.352;2023-06-22T09:37:11;9.68;;;5.60;;
18340;SDS011;9296;48.084;16.352;2023-06-22T09:39:38;9.30;;;5.13;;
18340;SDS011;9296;48.084;16.352;2023-06-22T09:45:10;9.70;;;5.30;;
18340;SDS011;9296;48.084;16.352;2023-06-22T09:47:37;11.20;;;5.72;;
18340;SDS011;9296;48.084;16.352;2023-06-22T09:50:04;6.53;;;5.05;;
18340;SDS011;9296;48.084;16.352;2023-06-22T09:52:33;11.15;;;5.47;;
18340;SDS011;9296;48.084;16.352;2023-06-22T09:55:00;9.73;;;5.13;;
18340;SDS011;9296;48.084;16.352;2023-06-22T10:00:50;9.63;;;5.82;;
18340;SDS011;9296;48.084;16.352;2023-06-22T10:03:18;8.70;;;4.93;;
18340;SDS011;9296;48.084;16.352;2023-06-22T10:05:45;8.57;;;4.72;;
18340;SDS011;9296;48.084;16.352;2023-06-22T10:08:13;9.13;;;4.80;;
18340;SDS011;9296;48.084;16.352;2023-06-22T10:10:41;7.28;;;4.50;;
18340;SDS011;9296;48.084;16.352;2023-06-22T10:16:11;8.98;;;4.10;;
18340;SDS011;9296;48.084;16.352;2023-06-22T10:18:39;7.65;;;3.70;;
18340;SDS011;9296;48.084;16.352;2023-06-22T10:21:06;9.05;;;3.92;;
18340;SDS011;9296;48.084;16.352;2023-06-22T10:23:34;8.70;;;3.45;;
18340;SDS011;9296;48.084;16.352;2023-06-22T10:26:02;7.32;;;3.67;;
18340;SDS011;9296;48.084;16.352;2023-06-22T10:31:32;6.30;;;3.55;;
18340;SDS011;9296;48.084;16.352;2023-06-22T10:34:00;5.82;;;3.60;;
18340;SDS011;9296;48.084;16.352;2023-06-22T10:36:27;7.25;;;3.17;;
18340;SDS011;9296;48.084;16.352;2023-06-22T10:38:56;7.68;;;3.63;;
18340;SDS011;9296;48.084;16.352;2023-06-22T10:41:24;8.52;;;3.95;;
18340;SDS011;9296;48.084;16.352;2023-06-22T10:46:57;6.28;;;3.35;;
18340;SDS011;9296;48.084;16.352;2023-06-22T10:49:24;8.15;;;4.20;;
18340;SDS011;9296;48.084;16.352;2023-06-22T10:51:52;9.95;;;4.45;;
18340;SDS011;9296;48.084;16.352;2023-06-22T10:54:20;10.02;;;4.20;;
18340;SDS011;9296;48.084;16.352;2023-06-22T10:59:46;12.63;;;4.25;;
18340;SDS011;9296;48.084;16.352;2023-06-22T11:02:13;8.32;;;3.80;;
18340;SDS011;9296;48.084;16.352;2023-06-22T11:04:40;7.47;;;3.58;;
18340;SDS011;9296;48.084;16.352;2023-06-22T11:07:08;7.43;;;3.78;;
18340;SDS011;9296;48.084;16.352;2023-06-22T11:09:37;8.63;;;4.22;;
18340;SDS011;9296;48.084;16.352;2023-06-22T11:18:11;6.95;;;4.55;;
18340;SDS011;9296;48.084;16.352;2023-06-22T11:20:38;9.88;;;5.25;;
18340;SDS011;9296;48.084;16.352;2023-06-22T11:23:06;12.48;;;5.10;;
18340;SDS011;9296;48.084;16.352;2023-06-22T11:25:34;9.77;;;4.53;;
18340;SDS011;9296;48.084;16.352;2023-06-22T11:31:25;10.18;;;5.10;;
18340;SDS011;9296;48.084;16.352;2023-06-22T11:33:52;8.35;;;5.15;;
18340;SDS011;9296;48.084;16.352;2023-06-22T11:36:19;9.48;;;4.88;;
18340;SDS011;9296;48.084;16.352;2023-06-22T11:38:47;7.15;;;4.20;;
18340;SDS011;9296;48.084;16.352;2023-06-22T11:41:16;10.70;;;4.63;;
18340;SDS011;9296;48.084;16.352;2023-06-22T11:43:44;9.90;;;4.72;;
18340;SDS011;9296;48.084;16.352;2023-06-22T11:46:11;7.35;;;4.90;;
18340;SDS011;9296;48.084;16.352;2023-06-22T11:48:38;7.53;;;4.70;;
18340;SDS011;9296;48.084;16.352;2023-06-22T11:51:05;10.63;;;4.90;;
18340;SDS011;9296;48.084;16.352;2023-06-22T11:53:33;11.50;;;4.78;;
18340;SDS011;9296;48.084;16.352;2023-06-22T11:56:00;7.25;;;4.82;;
18340;SDS011;9296;48.084;16.352;2023-06-22T11:58:47;8.15;;;5.07;;
18340;SDS011;9296;48.084;16.352;2023-06-22T12:01:14;8.55;;;4.63;;
18340;SDS011;9296;48.084;16.352;2023-06-22T12:03:41;11.50;;;4.78;;
18340;SDS011;9296;48.084;16.352;2023-06-22T12:06:09;9.00;;;4.80;;
18340;SDS011;9296;48.084;16.352;2023-06-22T12:08:37;8.40;;;5.00;;
18340;SDS011;9296;48.084;16.352;2023-06-22T12:11:04;8.88;;;5.05;;
18340;SDS011;9296;48.084;16.352;2023-06-22T12:13:51;7.10;;;4.60;;
18340;SDS011;9296;48.084;16.352;2023-06-22T12:16:18;9.55;;;4.78;;
18340;SDS011;9296;48.084;16.352;2023-06-22T12:18:47;10.80;;;5.18;;
18340;SDS011;9296;48.084;16.352;2023-06-22T12:21:14;10.00;;;4.88;;
18340;SDS011;9296;48.084;16.352;2023-06-22T12:23:41;9.30;;;4.93;;
18340;SDS011;9296;48.084;16.352;2023-06-22T12:26:08;12.32;;;5.30;;
18340;SDS011;9296;48.084;16.352;2023-06-22T12:28:35;8.63;;;5.05;;
18340;SDS011;9296;48.084;16.352;2023-06-22T12:31:04;9.38;;;5.00;;
18340;SDS011;9296;48.084;16.352;2023-06-22T12:33:31;8.93;;;4.80;;
18340;SDS011;9296;48.084;16.352;2023-06-22T12:35:59;9.52;;;5.35;;
18340;SDS011;9296;48.084;16.352;2023-06-22T12:38:26;7.57;;;4.85;;
18340;SDS011;9296;48.084;16.352;2023-06-22T12:40:53;10.25;;;5.22;;
18340;SDS011;9296;48.084;16.352;2023-06-22T12:43:40;11.90;;;5.38;;
18340;SDS011;9296;48.084;16.352;2023-06-22T12:46:08;10.43;;;4.95;;
18340;SDS011;9296;48.084;16.352;2023-06-22T12:48:35;9.05;;;5.38;;
18340;SDS011;9296;48.084;16.352;2023-06-22T12:51:06;9.82;;;5.28;;
18340;SDS011;9296;48.084;16.352;2023-06-22T12:53:34;11.45;;;5.22;;
18340;SDS011;9296;48.084;16.352;2023-06-22T12:56:01;8.52;;;5.53;;
18340;SDS011;9296;48.084;16.352;2023-06-22T13:01:16;8.88;;;5.38;;
18340;SDS011;9296;48.084;16.352;2023-06-22T13:03:43;9.63;;;6.10;;
18340;SDS011;9296;48.084;16.352;2023-06-22T13:06:10;9.43;;;5.50;;
18340;SDS011;9296;48.084;16.352;2023-06-22T13:08:37;10.88;;;5.68;;
18340;SDS011;9296;48.084;16.352;2023-06-22T13:11:04;11.68;;;5.70;;
18340;SDS011;9296;48.084;16.352;2023-06-22T13:13:32;11.77;;;5.88;;
18340;SDS011;9296;48.084;16.352;2023-06-22T13:16:00;8.32;;;5.47;;
18340;SDS011;9296;48.084;16.352;2023-06-22T13:18:28;10.88;;;5.72;;
18340;SDS011;9296;48.084;16.352;2023-06-22T13:20:55;10.25;;;5.40;;
18340;SDS011;9296;48.084;16.352;2023-06-22T13:23:23;9.30;;;5.43;;
18340;SDS011;9296;48.084;16.352;2023-06-22T13:25:50;10.77;;;5.78;;
18340;SDS011;9296;48.084;16.352;2023-06-22T13:34:26;9.48;;;5.47;;
18340;SDS011;9296;48.084;16.352;2023-06-22T13:36:54;10.00;;;5.88;;
18340;SDS011;9296;48.084;16.352;2023-06-22T13:39:21;20.17;;;6.25;;
18340;SDS011;9296;48.084;16.352;2023-06-22T13:41:48;9.32;;;5.93;;
18340;SDS011;9296;48.084;16.352;2023-06-22T13:44:34;10.32;;;5.90;;
18340;SDS011;9296;48.084;16.352;2023-06-22T13:47:01;10.93;;;6.43;;
18340;SDS011;9296;48.084;16.352;2023-06-22T13:49:31;11.63;;;6.53;;
18340;SDS011;9296;48.084;16.352;2023-06-22T13:51:58;10.75;;;5.63;;
18340;SDS011;9296;48.084;16.352;2023-06-22T13:54:25;11.55;;;6.43;;
18340;SDS011;9296;48.084;16.352;2023-06-22T13:56:52;13.07;;;6.75;;
18340;SDS011;9296;48.084;16.352;2023-06-22T14:08:33;11.55;;;6.40;;
18340;SDS011;9296;48.084;16.352;2023-06-22T14:11:00;9.35;;;6.45;;
18340;SDS011;9296;48.084;16.352;2023-06-22T14:13:27;9.05;;;6.60;;
18340;SDS011;9296;48.084;16.352;2023-06-22T14:15:54;10.18;;;6.53;;
18340;SDS011;9296;48.084;16.352;2023-06-22T14:18:21;9.80;;;6.25;;
18340;SDS011;9296;48.084;16.352;2023-06-22T14:20:49;11.80;;;6.90;;
18340;SDS011;9296;48.084;16.352;2023-06-22T14:23:16;12.25;;;6.88;;
18340;SDS011;9296;48.084;16.352;2023-06-22T14:25:44;11.30;;;6.60;;
18340;SDS011;9296;48.084;16.352;2023-06-22T14:28:30;10.52;;;6.63;;
18340;SDS011;9296;48.084;16.352;2023-06-22T14:30:57;10.85;;;7.00;;
18340;SDS011;9296;48.084;16.352;2023-06-22T14:33:25;12.00;;;7.32;;
18340;SDS011;9296;48.084;16.352;2023-06-22T14:35:52;10.80;;;6.35;;
18340;SDS011;9296;48.084;16.352;2023-06-22T14:38:19;12.13;;;6.40;;
18340;SDS011;9296;48.084;16.352;2023-06-22T14:40:48;13.15;;;6.65;;
18340;SDS011;9296;48.084;16.352;2023-06-22T14:49:22;12.90;;;6.57;;
18340;SDS011;9296;48.084;16.352;2023-06-22T14:51:49;10.88;;;6.78;;
18340;SDS011;9296;48.084;16.352;2023-06-22T14:54:16;11.63;;;6.43;;
18340;SDS011;9296;48.084;16.352;2023-06-22T14:56:45;14.35;;;6.93;;
18340;SDS011;9296;48.084;16.352;2023-06-22T15:02:16;11.32;;;6.30;;
18340;SDS011;9296;48.084;16.352;2023-06-22T15:04:43;10.98;;;6.72;;
18340;SDS011;9296;48.084;16.352;2023-06-22T15:07:11;11.60;;;7.13;;
18340;SDS011;9296;48.084;16.352;2023-06-22T15:09:38;8.95;;;6.95;;
18340;SDS011;9296;48.084;16.352;2023-06-22T15:12:09;10.35;;;7.55;;
18340;SDS011;9296;48.084;16.352;2023-06-22T15:14:37;11.13;;;7.00;;
18340;SDS011;9296;48.084;16.352;2023-06-22T15:17:05;13.95;;;7.25;;
18340;SDS011;9296;48.084;16.352;2023-06-22T15:19:34;11.07;;;6.80;;
18340;SDS011;9296;48.084;16.352;2023-06-22T15:22:02;10.48;;;7.53;;
18340;SDS011;9296;48.084;16.352;2023-06-22T15:24:29;10.85;;;6.75;;
18340;SDS011;9296;48.084;16.352;2023-06-22T15:26:56;9.02;;;7.13;;
18340;SDS011;9296;48.084;16.352;2023-06-22T15:29:25;12.57;;;7.05;;
18340;SDS011;9296;48.084;16.352;2023-06-22T15:31:52;12.35;;;7.68;;
18340;SDS011;9296;48.084;16.352;2023-06-22T15:34:19;13.48;;;7.47;;
18340;SDS011;9296;48.084;16.352;2023-06-22T15:36:47;8.80;;;7.03;;
18340;SDS011;9296;48.084;16.352;2023-06-22T15:39:14;10.98;;;7.53;;
18340;SDS011;9296;48.084;16.352;2023-06-22T15:41:41;10.80;;;7.47;;
18340;SDS011;9296;48.084;16.352;2023-06-22T15:44:09;9.85;;;7.25;;
18340;SDS011;9296;48.084;16.352;2023-06-22T15:46:37;14.98;;;7.45;;
18340;SDS011;9296;48.084;16.352;2023-06-22T15:49:04;12.07;;;7.65;;
18340;SDS011;9296;48.084;16.352;2023-06-22T15:51:32;13.35;;;7.75;;
18340;SDS011;9296;48.084;16.352;2023-06-22T15:53:59;11.20;;;7.38;;
18340;SDS011;9296;48.084;16.352;2023-06-22T15:56:26;10.63;;;7.78;;
18340;SDS011;9296;48.084;16.352;2023-06-22T15:58:53;13.35;;;8.07;;
18340;SDS011;9296;48.084;16.352;2023-06-22T16:01:21;17.20;;;7.90;;